Time;durP1;ratioP1;P1;durP2;ratioP2;P2;SDS_P1;SDS_P2;PMS_P1;PMS_P2;Temp;Humidity;BMP_temperature;BMP_pressure;BME280_temperature;BME280_humidity;BME280_pressure;Samples;Min_cycle;Max_cycle;Signal;HPM_P1;HPM_P2
2022/01/08 00:00:15;;;;;;;14.93;6.70;;;;;;;0.78;55.99;99952.25;4975814;28;97918;-87
2022/01/08 00:02:42;;;;;;;13.07;6.30;;;;;;;0.97;56.40;99984.13;4959013;28;97350;-84
2022/01/08 00:05:08;;;;;;;13.53;6.63;;;;;;;0.92;57.04;99971.19;4959890;28;96745;-86
2022/01/08 00:07:34;;;;;;;15.23;7.50;;;;;;;0.96;57.25;99983.28;4940919;28;96790;-87
2022/01/08 00:09:59;;;;;;;16.80;6.97;;;;;;;0.84;56.92;99963.47;4945280;28;100457;-87
2022/01/08 00:12:25;;;;;;;13.17;6.27;;;;;;;0.88;57.18;99946.22;4961226;28;101163;-86
2022/01/08 00:14:54;;;;;;;11.83;6.47;;;;;;;1.02;57.03;99984.97;4959294;28;96699;-85
2022/01/08 00:17:22;;;;;;;14.37;6.87;;;;;;;0.92;56.97;99962.59;4961439;28;96758;-88
2022/01/08 00:19:50;;;;;;;14.70;7.03;;;;;;;0.95;56.68;99984.13;4959513;28;100603;-86
2022/01/08 00:22:18;;;;;;;12.00;5.93;;;;;;;0.88;57.28;99983.25;4945985;28;100827;-87
2022/01/08 00:24:44;;;;;;;21.40;8.33;;;;;;;0.90;56.97;99985.84;4953214;28;97801;-86
2022/01/08 00:27:10;;;;;;;12.13;6.73;;;;;;;0.92;56.96;99981.53;4961567;28;97175;-85
2022/01/08 00:29:36;;;;;;;11.70;6.23;;;;;;;0.95;57.39;99991.00;4955859;28;98570;-88
2022/01/08 00:32:02;;;;;;;14.43;6.33;;;;;;;0.78;57.99;99978.94;4973825;28;100094;-86
2022/01/08 00:34:27;;;;;;;12.53;6.20;;;;;;;0.73;58.65;99970.34;4925117;28;96584;-86
2022/01/08 00:36:53;;;;;;;18.27;6.60;;;;;;;0.89;58.25;99981.53;4942032;28;96840;-87
2022/01/08 00:39:18;;;;;;;17.20;6.50;;;;;;;0.98;57.99;99988.44;4924297;28;102043;-87
2022/01/08 00:41:44;;;;;;;20.27;9.13;;;;;;;0.95;58.46;99970.34;4940316;28;97883;-87
2022/01/08 00:44:10;;;;;;;17.67;7.90;;;;;;;0.98;58.35;99984.13;4941280;28;96769;-87
2022/01/08 00:46:35;;;;;;;22.43;9.97;;;;;;;1.01;58.45;99981.53;4940819;28;96784;-87
2022/01/08 00:49:03;;;;;;;21.43;8.97;;;;;;;0.82;59.11;99944.50;4939981;28;96963;-87
2022/01/08 00:51:28;;;;;;;20.63;9.70;;;;;;;1.01;59.44;99983.25;4939367;28;100346;-87
2022/01/08 00:53:54;;;;;;;16.57;6.63;;;;;;;1.10;58.73;99972.91;4956417;28;96582;-86
2022/01/08 00:56:19;;;;;;;21.00;7.57;;;;;;;1.02;58.83;99977.22;4924858;28;96685;-87
2022/01/08 00:58:45;;;;;;;16.17;6.67;;;;;;;0.90;59.26;99960.88;4957478;28;98515;-86
2022/01/08 01:01:10;;;;;;;19.03;7.23;;;;;;;1.07;59.50;99970.31;4957368;28;98106;-87
2022/01/08 01:03:36;;;;;;;25.57;10.20;;;;;;;0.97;59.83;99966.91;4940370;28;96733;-86
2022/01/08 01:06:02;;;;;;;16.50;6.70;;;;;;;1.03;59.50;99966.88;4924665;28;96554;-87
2022/01/08 01:08:28;;;;;;;14.97;6.53;;;;;;;1.07;59.90;99958.25;4956788;28;97390;-87
2022/01/08 01:10:53;;;;;;;14.00;6.50;;;;;;;0.95;59.86;99940.19;4956021;28;101255;-88
2022/01/08 01:13:19;;;;;;;15.47;6.47;;;;;;;1.08;60.13;99959.13;4960472;28;96639;-87
2022/01/08 01:15:44;;;;;;;11.30;5.30;;;;;;;0.88;60.07;99936.75;4959707;28;96867;-87
2022/01/08 01:18:10;;;;;;;13.97;5.60;;;;;;;0.98;60.03;99940.16;4959658;28;100133;-86
2022/01/08 01:20:36;;;;;;;14.97;5.73;;;;;;;0.93;60.59;99938.44;4958553;28;101830;-86
2022/01/08 01:23:11;;;;;;;12.37;6.10;;;;;;;1.00;60.58;99947.94;4960402;28;96691;-87
2022/01/08 01:25:41;;;;;;;16.27;6.33;;;;;;;0.99;60.28;99946.19;4960897;28;96712;-86
2022/01/08 01:28:20;;;;;;;11.77;5.20;;;;;;;0.92;60.09;99947.09;4957702;28;99876;-87
2022/01/08 01:49:26;;;;;;;11.63;5.40;;;;;;;1.00;59.96;99935.88;4975330;28;98554;-86
2022/01/08 01:51:51;;;;;;;10.30;5.37;;;;;;;1.02;59.46;99923.81;4991491;28;101598;-87
2022/01/08 01:54:17;;;;;;;15.73;6.20;;;;;;;1.08;59.19;99926.38;4992633;28;96595;-87
2022/01/08 01:56:43;;;;;;;11.07;5.60;;;;;;;1.06;59.60;99907.41;4975403;28;96727;-86
2022/01/08 01:59:08;;;;;;;10.23;5.80;;;;;;;1.14;58.63;99904.84;4975461;28;101082;-87
2022/01/08 02:01:34;;;;;;;13.03;6.30;;;;;;;1.00;58.93;99888.50;4992390;28;98176;-87
2022/01/08 02:03:59;;;;;;;11.97;6.13;;;;;;;1.10;59.34;99906.53;4963373;28;96795;-87
2022/01/08 02:06:25;;;;;;;14.03;6.17;;;;;;;0.96;59.09;99881.59;4956025;28;96747;-86
2022/01/08 02:08:51;;;;;;;13.67;5.57;;;;;;;1.02;59.39;99903.13;4951580;28;100271;-87
2022/01/08 02:11:19;;;;;;;11.20;5.40;;;;;;;1.02;58.68;99891.91;4920119;28;101426;-87
2022/01/08 02:13:45;;;;;;;15.13;6.17;;;;;;;1.03;58.89;99904.84;4920334;28;96577;-87
2022/01/08 02:16:17;;;;;;;9.90;4.90;;;;;;;1.04;58.91;99905.69;4920751;28;96787;-88
2022/01/08 02:18:50;;;;;;;8.68;5.03;;;;;;;1.07;59.13;99895.34;4920506;28;97515;-86
2022/01/08 02:21:16;;;;;;;10.07;5.77;;;;;;;1.08;58.93;99908.28;4928600;28;98335;-87
2022/01/08 02:23:42;;;;;;;13.10;6.43;;;;;;;0.92;58.77;99878.16;4922809;28;96697;-87
2022/01/08 02:26:10;;;;;;;12.30;5.90;;;;;;;1.04;59.14;99903.97;4954751;28;97736;-86
2022/01/08 02:28:37;;;;;;;12.33;5.77;;;;;;;1.13;58.81;99896.22;4955309;28;101481;-87
2022/01/08 02:31:03;;;;;;;10.83;5.77;;;;;;;0.84;58.58;99860.09;4922727;28;101348;-87
2022/01/08 02:33:29;;;;;;;12.17;5.80;;;;;;;1.03;59.20;99909.16;4955961;28;96983;-86
2022/01/08 02:35:55;;;;;;;11.53;5.77;;;;;;;0.98;59.06;99903.97;4956750;28;96991;-87
2022/01/08 02:38:21;;;;;;;12.87;5.40;;;;;;;1.15;59.03;99903.97;4937334;28;100459;-87
2022/01/08 02:40:54;;;;;;;14.07;6.00;;;;;;;1.07;59.23;99908.28;4938885;28;97578;-87
2022/01/08 02:43:19;;;;;;;9.40;4.57;;;;;;;1.07;58.90;99888.44;4942852;28;96596;-87
2022/01/08 02:45:45;;;;;;;8.53;4.83;;;;;;;1.04;59.02;99885.03;4926469;28;96879;-86
2022/01/08 02:48:11;;;;;;;11.80;5.50;;;;;;;1.16;58.53;99882.41;4958455;28;100562;-86
2022/01/08 02:50:36;;;;;;;10.10;5.33;;;;;;;1.17;59.03;99886.72;4974895;28;100365;-87
2022/01/08 02:53:02;;;;;;;9.47;5.70;;;;;;;1.09;59.51;99881.56;4960104;28;96590;-87
2022/01/08 02:55:28;;;;;;;10.30;5.93;;;;;;;1.12;59.17;99878.97;4977337;28;96811;-87
2022/01/08 02:57:53;;;;;;;10.63;5.67;;;;;;;1.08;59.28;99879.00;4974437;28;97584;-87
2022/01/08 03:00:20;;;;;;;11.23;5.43;;;;;;;1.08;59.10;99881.59;4958398;28;101755;-87
2022/01/08 03:02:48;;;;;;;9.47;4.90;;;;;;;1.04;59.49;99885.88;4958848;28;96576;-86
2022/01/08 03:05:13;;;;;;;11.43;5.23;;;;;;;1.10;59.60;99883.28;4964469;28;97325;-86
2022/01/08 03:07:40;;;;;;;12.47;5.27;;;;;;;1.05;59.56;99874.69;4922931;28;97712;-88
2022/01/08 03:10:11;;;;;;;11.33;5.93;;;;;;;0.98;59.03;99862.63;4934263;28;99875;-88
2022/01/08 03:12:41;;;;;;;11.27;5.77;;;;;;;0.93;59.78;99861.78;4924030;28;97228;-87
2022/01/08 03:15:18;;;;;;;10.77;5.67;;;;;;;1.14;59.59;99884.16;4924353;28;96796;-87
2022/01/08 03:17:44;;;;;;;12.23;6.17;;;;;;;1.17;59.42;99884.13;4947836;28;100114;-85
2022/01/08 03:20:14;;;;;;;7.53;4.97;;;;;;;0.97;60.04;99854.91;4976618;28;97491;-86
2022/01/08 03:22:42;;;;;;;10.27;4.93;;;;;;;0.97;59.85;99871.25;4959059;28;97125;-87
2022/01/08 03:25:07;;;;;;;10.23;5.40;;;;;;;1.12;59.91;99883.28;4959063;28;96668;-88
2022/01/08 03:27:34;;;;;;;9.30;5.23;;;;;;;1.21;59.71;99879.81;4959353;28;97202;-87
2022/01/08 03:30:00;;;;;;;11.67;5.50;;;;;;;1.04;59.55;99849.69;4975242;28;98253;-86
2022/01/08 03:32:26;;;;;;;10.80;5.83;;;;;;;1.10;59.52;99865.16;4973741;28;96758;-88
2022/01/08 03:34:52;;;;;;;10.00;5.53;;;;;;;1.05;60.29;99863.50;4955597;28;96909;-87
2022/01/08 03:37:18;;;;;;;11.27;5.23;;;;;;;1.15;60.24;99870.34;4923279;28;100893;-87
2022/01/08 03:39:43;;;;;;;11.37;5.23;;;;;;;1.09;59.72;99842.78;4923777;28;100761;-88
2022/01/08 03:42:09;;;;;;;12.10;6.00;;;;;;;1.19;59.69;99861.69;4955789;28;96640;-87
2022/01/08 03:44:34;;;;;;;15.33;5.80;;;;;;;1.25;59.82;99842.72;4956235;28;96765;-87
2022/01/08 03:49:45;;;;;;;12.50;6.40;;;;;;;1.25;59.98;99851.38;4956263;28;101556;-87
2022/01/08 03:52:12;;;;;;;11.87;5.50;;;;;;;1.07;60.10;99831.56;4955563;28;96637;-87
2022/01/08 03:54:38;;;;;;;10.80;6.63;;;;;;;1.13;59.85;99833.28;4955243;28;96666;-86
2022/01/08 03:57:04;;;;;;;11.33;6.03;;;;;;;0.91;60.02;99796.31;4954885;28;100161;-87
2022/01/08 03:59:30;;;;;;;13.03;5.97;;;;;;;0.97;59.90;99803.19;4955756;28;97971;-87
2022/01/08 04:01:55;;;;;;;11.47;5.73;;;;;;;1.06;60.42;99837.63;4955360;28;96552;-86
2022/01/08 04:04:21;;;;;;;11.57;5.93;;;;;;;1.14;60.41;99840.19;4955950;28;96934;-87
2022/01/08 04:06:46;;;;;;;11.90;5.57;;;;;;;1.11;60.00;99835.88;4951948;28;98063;-84
2022/01/08 04:09:12;;;;;;;11.70;5.50;;;;;;;1.21;60.41;99838.44;4922050;28;101591;-87
2022/01/08 04:11:38;;;;;;;10.70;4.87;;;;;;;1.07;60.69;99829.00;4955221;28;96809;-86
2022/01/08 04:14:04;;;;;;;13.73;6.07;;;;;;;1.15;60.35;99823.81;4955151;28;96723;-87
2022/01/08 04:16:33;;;;;;;9.10;5.30;;;;;;;1.21;60.29;99825.50;4955300;28;97959;-87
2022/01/08 04:18:59;;;;;;;10.53;4.90;;;;;;;1.09;60.74;99803.16;4971176;28;100997;-86
2022/01/08 04:23:51;;;;;;;11.97;6.07;;;;;;;1.09;60.77;99821.25;4947351;28;97241;-84
2022/01/08 04:26:17;;;;;;;12.60;6.50;;;;;;;1.17;60.44;99821.22;4955575;28;100581;-86
2022/01/08 04:28:42;;;;;;;8.37;4.80;;;;;;;1.19;60.55;99825.50;4939345;28;97965;-87
2022/01/08 04:31:08;;;;;;;14.60;5.87;;;;;;;1.26;60.96;99822.03;4922356;28;96597;-87
2022/01/08 04:33:33;;;;;;;9.10;5.30;;;;;;;1.26;60.52;99811.69;4922680;28;96781;-87
2022/01/08 04:35:59;;;;;;;10.70;6.13;;;;;;;1.18;60.84;99804.84;4937555;28;100469;-87
2022/01/08 04:38:24;;;;;;;14.17;5.40;;;;;;;1.17;61.26;99810.88;4922883;28;100682;-87
2022/01/08 04:40:50;;;;;;;10.10;5.30;;;;;;;1.24;60.98;99812.56;4970971;28;96659;-84
2022/01/08 04:43:16;;;;;;;9.87;5.50;;;;;;;1.15;61.43;99820.38;4949444;28;96889;-86
2022/01/08 04:45:42;;;;;;;10.20;5.77;;;;;;;1.20;61.49;99818.63;4941025;28;101547;-87
2022/01/08 04:48:08;;;;;;;13.20;5.63;;;;;;;1.25;61.05;99811.69;4957738;28;100967;-87
2022/01/08 04:50:33;;;;;;;9.67;5.43;;;;;;;1.22;60.97;99797.06;4958664;28;96620;-87
2022/01/08 04:52:59;;;;;;;10.43;5.43;;;;;;;1.22;61.02;99798.78;4974487;28;96602;-86
2022/01/08 04:55:25;;;;;;;13.40;5.30;;;;;;;1.26;61.08;99828.94;4974268;28;100424;-87
2022/01/08 04:57:50;;;;;;;10.23;5.73;;;;;;;1.24;61.40;99818.59;4941203;28;100351;-87
2022/01/08 05:00:19;;;;;;;9.87;5.13;;;;;;;1.33;61.43;99830.63;4969740;28;96582;-87
2022/01/08 05:02:45;;;;;;;13.00;5.90;;;;;;;1.35;61.37;99829.75;4938162;28;96850;-86
2022/01/08 05:05:10;;;;;;;9.63;5.40;;;;;;;1.22;61.45;99828.09;4937594;28;101207;-87
2022/01/08 05:07:36;;;;;;;10.10;6.13;;;;;;;1.24;62.29;99835.84;4938028;28;101891;-87
2022/01/08 05:10:03;;;;;;;11.97;5.90;;;;;;;1.33;61.53;99826.31;4942139;28;97288;-87
2022/01/08 05:12:28;;;;;;;11.07;5.63;;;;;;;1.35;61.73;99815.97;4954325;28;97176;-87
2022/01/08 05:14:56;;;;;;;12.80;5.63;;;;;;;1.29;61.86;99811.69;4953858;28;98463;-84
2022/01/08 05:17:28;;;;;;;13.80;6.40;;;;;;;1.52;61.28;99813.31;4954736;28;101097;-87
2022/01/08 05:19:54;;;;;;;13.80;6.80;;;;;;;1.41;61.69;99817.66;4955524;28;96655;-83
2022/01/08 05:22:29;;;;;;;12.07;6.10;;;;;;;1.56;61.87;99827.94;4949632;28;96765;-87
2022/01/08 05:24:55;;;;;;;11.93;5.83;;;;;;;1.55;61.26;99823.63;4938282;28;99075;-84
2022/01/08 05:27:21;;;;;;;11.20;6.53;;;;;;;1.55;61.66;99826.22;4921599;28;101699;-87
2022/01/08 05:29:48;;;;;;;13.37;6.77;;;;;;;1.49;61.50;99831.44;4938061;28;96545;-87
2022/01/08 05:32:18;;;;;;;12.20;6.67;;;;;;;1.11;62.02;99766.09;4937750;28;97267;-87
2022/01/08 05:34:51;;;;;;;11.00;6.60;;;;;;;1.44;62.00;99817.66;4954151;28;98092;-87
2022/01/08 05:37:18;;;;;;;9.23;5.93;;;;;;;1.31;61.74;99791.84;4955257;28;98128;-86
2022/01/08 05:39:48;;;;;;;10.17;6.03;;;;;;;1.44;62.02;99815.91;4974615;28;97232;-87
2022/01/08 05:42:14;;;;;;;13.40;6.00;;;;;;;1.36;61.88;99804.75;4941533;28;96733;-87
2022/01/08 05:44:39;;;;;;;8.57;5.70;;;;;;;1.42;62.60;99819.38;4956842;28;101753;-87
2022/01/08 05:47:05;;;;;;;11.43;5.97;;;;;;;1.45;62.26;99807.28;4956367;28;101609;-87
2022/01/08 05:49:31;;;;;;;11.63;5.80;;;;;;;1.45;62.54;99816.78;4957148;28;96946;-88
2022/01/08 05:51:56;;;;;;;12.13;6.73;;;;;;;1.39;62.51;99811.63;4940210;28;96966;-85
2022/01/08 05:54:22;;;;;;;10.90;6.37;;;;;;;1.45;62.71;99816.78;4927996;28;100391;-88
2022/01/08 05:56:49;;;;;;;10.73;6.47;;;;;;;1.53;62.12;99822.78;4973366;28;97785;-87
2022/01/08 05:59:14;;;;;;;11.47;6.63;;;;;;;1.46;62.24;99824.53;4956881;28;96634;-88
2022/01/08 06:01:40;;;;;;;14.70;7.07;;;;;;;1.36;62.31;99810.78;4973918;28;96703;-87
2022/01/08 06:04:06;;;;;;;9.93;6.50;;;;;;;1.21;62.38;99786.72;4972971;28;98516;-87
2022/01/08 06:06:31;;;;;;;11.07;6.43;;;;;;;1.45;62.73;99822.81;4947384;28;100017;-86
2022/01/08 06:08:57;;;;;;;13.17;6.67;;;;;;;1.46;62.96;99821.09;4937021;28;96564;-85
2022/01/08 06:11:22;;;;;;;11.50;7.17;;;;;;;1.43;62.26;99810.78;4937180;28;97002;-87
2022/01/08 06:13:48;;;;;;;13.20;6.93;;;;;;;1.57;63.03;99832.22;4921074;28;99714;-87
2022/01/08 06:16:14;;;;;;;13.03;6.87;;;;;;;1.43;63.07;99824.56;4947522;28;98380;-86
2022/01/08 06:18:40;;;;;;;11.90;7.00;;;;;;;1.48;63.25;99829.69;4947899;28;97075;-86
2022/01/08 06:21:06;;;;;;;13.90;6.67;;;;;;;1.45;62.96;99832.28;4952376;28;96671;-86
2022/01/08 06:23:32;;;;;;;13.57;7.17;;;;;;;1.41;63.16;99840.94;4975104;28;98273;-87
2022/01/08 06:25:58;;;;;;;11.40;7.53;;;;;;;1.50;63.40;99839.16;4940272;28;101134;-87
2022/01/08 06:28:24;;;;;;;12.37;6.97;;;;;;;1.43;63.07;99829.72;4956480;28;96631;-87
2022/01/08 06:30:49;;;;;;;13.27;7.37;;;;;;;1.34;63.30;99832.38;4941042;28;96992;-87
2022/01/08 06:33:16;;;;;;;11.67;7.13;;;;;;;1.20;63.76;99792.78;4938394;28;101678;-87
2022/01/08 06:35:41;;;;;;;15.50;7.33;;;;;;;1.35;63.05;99808.22;4966262;28;97221;-86
2022/01/08 06:38:07;;;;;;;15.03;7.20;;;;;;;1.70;62.79;99844.25;4986285;28;96626;-87
2022/01/08 06:40:33;;;;;;;10.47;7.30;;;;;;;1.49;63.30;99850.41;4955237;28;96797;-86
2022/01/08 06:42:58;;;;;;;13.90;7.63;;;;;;;1.44;63.34;99838.34;4954926;28;99903;-87
2022/01/08 06:45:24;;;;;;;12.47;7.10;;;;;;;1.44;63.19;99839.19;4970153;28;101156;-86
2022/01/08 06:47:50;;;;;;;13.20;7.83;;;;;;;1.44;63.54;99839.19;4971930;28;97684;-87
2022/01/08 06:50:16;;;;;;;13.33;7.93;;;;;;;1.52;64.06;99852.13;4948518;28;97207;-88
2022/01/08 06:52:42;;;;;;;15.13;8.03;;;;;;;1.48;63.68;99838.31;4954677;28;101512;-86
2022/01/08 06:55:07;;;;;;;14.30;7.90;;;;;;;1.45;63.96;99832.28;4954384;28;100228;-86
2022/01/08 06:57:33;;;;;;;16.23;8.27;;;;;;;1.40;63.81;99845.28;4957389;28;96723;-86
2022/01/08 07:00:01;;;;;;;12.10;7.57;;;;;;;1.43;64.20;99842.66;4939025;28;96875;-86
2022/01/08 07:02:27;;;;;;;15.63;8.33;;;;;;;1.30;64.29;99830.63;4950902;28;101285;-86
2022/01/08 07:04:52;;;;;;;14.63;8.80;;;;;;;1.41;64.47;99835.78;4952638;28;101710;-87
2022/01/08 07:07:18;;;;;;;16.03;8.77;;;;;;;1.41;64.78;99849.56;4952212;28;97278;-87
2022/01/08 07:09:44;;;;;;;12.97;7.53;;;;;;;1.33;64.17;99836.66;4952795;28;96796;-86
2022/01/08 07:12:09;;;;;;;13.67;7.87;;;;;;;1.32;64.98;99850.47;4951521;28;100393;-88
2022/01/08 07:14:35;;;;;;;14.97;8.10;;;;;;;1.43;65.00;99858.19;4951996;28;101429;-86
2022/01/08 07:17:00;;;;;;;15.73;7.37;;;;;;;1.50;64.21;99857.28;4936689;28;96655;-88
2022/01/08 07:19:26;;;;;;;16.73;8.27;;;;;;;1.36;65.12;99835.78;4967661;28;96942;-87
2022/01/08 07:21:51;;;;;;;14.07;8.03;;;;;;;1.38;65.08;99859.91;4943573;28;101720;-86
2022/01/08 07:24:17;;;;;;;15.30;9.17;;;;;;;1.36;64.23;99828.03;4929739;28;99910;-87
2022/01/08 07:26:43;;;;;;;14.80;7.83;;;;;;;1.34;64.89;99830.63;4937021;28;97126;-87
2022/01/08 07:29:08;;;;;;;14.53;8.50;;;;;;;1.42;65.21;99860.75;4953357;28;97052;-87
2022/01/08 07:31:34;;;;;;;14.17;8.30;;;;;;;1.42;64.96;99840.94;4972686;28;97969;-86
2022/01/08 07:33:59;;;;;;;13.97;9.07;;;;;;;1.38;65.17;99848.72;4956262;28;100212;-87
2022/01/08 07:36:25;;;;;;;13.73;8.20;;;;;;;1.45;64.84;99861.59;4951787;28;97406;-87
2022/01/08 07:38:51;;;;;;;13.30;8.17;;;;;;;1.38;64.99;99834.06;4953120;28;97095;-86
2022/01/08 07:41:16;;;;;;;12.83;7.90;;;;;;;1.62;64.75;99861.53;4966329;28;97555;-86
2022/01/08 07:43:42;;;;;;;18.27;8.67;;;;;;;1.59;64.95;99851.19;4952925;28;100965;-86
2022/01/08 07:46:08;;;;;;;17.03;8.93;;;;;;;1.70;64.55;99866.69;4968395;28;97221;-86
2022/01/08 07:48:33;;;;;;;17.80;9.93;;;;;;;1.69;64.02;99855.47;4969053;28;96968;-85
2022/01/08 07:50:59;;;;;;;22.63;10.00;;;;;;;1.64;64.19;99849.47;4962754;28;97609;-87
2022/01/08 07:53:25;;;;;;;21.77;11.40;;;;;;;1.57;64.92;99848.63;4971416;28;98324;-86
2022/01/08 07:55:51;;;;;;;16.43;9.20;;;;;;;1.56;64.67;99854.66;4971991;28;96778;-88
2022/01/08 07:58:20;;;;;;;21.20;10.40;;;;;;;1.45;64.86;99827.13;4955303;28;97028;-87
2022/01/08 08:00:50;;;;;;;25.60;11.20;;;;;;;1.66;64.67;99863.25;4954965;28;101115;-87
2022/01/08 08:03:17;;;;;;;19.80;10.47;;;;;;;1.57;64.54;99843.47;4950728;28;98436;-86
2022/01/08 08:05:44;;;;;;;17.50;9.07;;;;;;;1.70;64.29;99845.97;4938061;28;96793;-86
2022/01/08 08:08:09;;;;;;;18.27;10.57;;;;;;;1.68;64.63;99842.53;4971434;28;96839;-86
2022/01/08 08:10:35;;;;;;;16.30;8.90;;;;;;;1.67;65.31;99864.97;4966412;28;98057;-86
2022/01/08 08:13:00;;;;;;;21.87;10.20;;;;;;;1.75;65.00;99867.53;4971105;28;99710;-86
2022/01/08 08:15:26;;;;;;;18.80;9.57;;;;;;;1.85;64.76;99855.38;4969777;28;97298;-87
2022/01/08 08:17:54;;;;;;;18.57;9.63;;;;;;;1.81;64.63;99862.31;4955097;28;96774;-88
2022/01/08 08:20:20;;;;;;;18.73;9.33;;;;;;;1.83;64.41;99850.19;4956248;28;101433;-87
2022/01/08 08:22:46;;;;;;;18.37;10.03;;;;;;;1.67;64.81;99827.88;4953503;28;100857;-87
2022/01/08 08:25:11;;;;;;;16.53;9.00;;;;;;;1.83;64.77;99854.53;4955271;28;96992;-87
2022/01/08 08:27:39;;;;;;;19.10;8.93;;;;;;;1.87;65.10;99857.09;4972150;28;97204;-86
2022/01/08 08:30:06;;;;;;;16.90;9.23;;;;;;;1.72;64.64;99819.22;4935397;28;101697;-87
2022/01/08 08:32:32;;;;;;;16.60;9.67;;;;;;;1.98;64.83;99850.13;4936153;28;102230;-88
2022/01/08 08:34:57;;;;;;;15.57;9.27;;;;;;;1.98;64.55;99862.22;4935690;28;97309;-86
2022/01/08 08:37:23;;;;;;;18.50;9.60;;;;;;;2.09;64.56;99857.78;4935518;28;96919;-86
2022/01/08 08:39:49;;;;;;;16.37;9.43;;;;;;;2.01;64.35;99844.06;4931531;28;101347;-86
2022/01/08 08:42:15;;;;;;;18.03;9.60;;;;;;;1.96;64.56;99827.69;4947245;28;101977;-86
2022/01/08 08:44:40;;;;;;;21.27;9.27;;;;;;;2.15;64.04;99837.06;4968404;28;97473;-85
2022/01/08 08:47:06;;;;;;;16.30;9.73;;;;;;;2.17;64.56;99842.22;4950941;28;96949;-84
2022/01/08 08:49:32;;;;;;;19.10;10.70;;;;;;;2.14;64.18;99843.09;4947215;28;101551;-87
2022/01/08 08:51:57;;;;;;;18.47;10.07;;;;;;;1.99;64.46;99822.50;4935849;28;100023;-88
2022/01/08 08:54:23;;;;;;;20.10;10.57;;;;;;;1.81;64.98;99788.09;4962385;28;96894;-88
2022/01/08 08:56:49;;;;;;;15.77;9.50;;;;;;;2.11;65.07;99850.03;4971266;28;97254;-86
2022/01/08 08:59:15;;;;;;;19.97;11.33;;;;;;;2.17;64.69;99839.63;4952434;28;101492;-86
2022/01/08 09:01:40;;;;;;;17.10;9.97;;;;;;;2.14;64.99;99850.88;4955096;28;97987;-86
2022/01/08 09:04:07;;;;;;;20.00;10.13;;;;;;;2.08;65.32;99858.69;4955230;28;96730;-85
2022/01/08 09:06:33;;;;;;;19.63;9.57;;;;;;;2.03;65.53;99847.47;4953976;28;96871;-88
2022/01/08 09:08:59;;;;;;;20.97;10.03;;;;;;;2.03;65.51;99848.34;4967440;28;98327;-86
2022/01/08 09:11:26;;;;;;;19.57;10.83;;;;;;;2.27;64.75;99846.47;4972665;28;98353;-88
2022/01/08 09:13:51;;;;;;;17.13;10.57;;;;;;;2.20;64.51;99835.28;4954354;28;96944;-88
2022/01/08 09:16:17;;;;;;;17.57;10.80;;;;;;;2.17;64.60;99835.31;4952624;28;97310;-87
2022/01/08 09:18:44;;;;;;;16.63;10.00;;;;;;;2.25;64.95;99836.09;4937694;28;100565;-89
2022/01/08 09:21:11;;;;;;;19.80;10.67;;;;;;;2.37;64.84;99853.28;4969174;28;98160;-85
2022/01/08 09:23:37;;;;;;;17.93;10.70;;;;;;;2.46;64.48;99855.78;4964149;28;97137;-87
2022/01/08 09:26:03;;;;;;;21.83;11.17;;;;;;;2.35;64.37;99856.75;4976880;28;96990;-87
2022/01/08 09:28:31;;;;;;;15.80;10.03;;;;;;;2.32;64.96;99852.44;4971148;28;99747;-90
2022/01/08 09:30:58;;;;;;;23.47;10.77;;;;;;;2.14;64.71;99804.25;4955619;28;100312;-89
2022/01/08 09:33:25;;;;;;;17.17;10.50;;;;;;;2.21;64.68;99820.59;4957749;28;96985;-91
2022/01/08 09:35:52;;;;;;;28.40;14.97;;;;;;;2.53;64.62;99867.00;4958187;28;97368;-91
2022/01/08 09:38:17;;;;;;;30.57;15.20;;;;;;;2.16;64.38;99806.84;4943513;28;100649;-92
2022/01/08 09:40:43;;;;;;;26.70;15.07;;;;;;;2.66;64.28;99857.34;4954363;28;100495;-91
2022/01/08 09:43:09;;;;;;;23.10;12.87;;;;;;;2.55;64.59;99857.44;4971206;28;96659;-91
2022/01/08 09:45:35;;;;;;;19.83;11.87;;;;;;;2.56;64.35;99858.28;4941274;28;97405;-92
2022/01/08 09:48:01;;;;;;;16.33;9.77;;;;;;;2.43;64.08;99814.38;4950027;28;99864;-91
2022/01/08 09:50:27;;;;;;;20.17;10.43;;;;;;;2.48;63.60;99828.16;4947309;28;101716;-91
2022/01/08 09:52:57;;;;;;;18.43;10.03;;;;;;;2.06;64.18;99772.38;4971344;28;96771;-91
2022/01/08 09:55:25;;;;;;;16.67;10.83;;;;;;;2.36;63.99;99797.16;4952283;28;97148;-92
2022/01/08 09:57:51;;;;;;;18.50;10.13;;;;;;;2.18;63.87;99767.13;4996464;28;98013;-92
2022/01/08 10:00:18;;;;;;;17.83;10.00;;;;;;;2.45;64.15;99816.97;4942846;28;101339;-91
2022/01/08 10:02:47;;;;;;;18.03;9.40;;;;;;;2.51;64.11;99832.44;4966105;28;97325;-92
2022/01/08 10:05:15;;;;;;;23.33;12.03;;;;;;;2.18;63.75;99768.81;4972037;28;96827;-93
2022/01/08 10:07:42;;;;;;;35.20;13.77;;;;;;;2.53;64.27;99833.28;4955345;28;97641;-91
2022/01/08 10:10:12;;;;;;;17.73;10.77;;;;;;;2.81;63.98;99866.72;4955080;28;99200;-92
2022/01/08 10:12:53;;;;;;;29.20;12.90;;;;;;;2.85;63.77;99865.81;4971791;28;97028;-87
2022/01/08 10:18:23;;;;;;;21.47;10.43;;;;;;;3.06;63.19;99863.00;4956193;28;99039;-88
2022/01/08 10:20:50;;;;;;;23.52;10.35;;;;;;;3.04;62.91;99846.59;4953296;28;97950;-88
2022/01/08 10:23:24;;;;;;;24.07;10.43;;;;;;;3.05;62.86;99843.13;4969729;28;98182;-89
2022/01/08 10:26:02;;;;;;;23.40;9.97;;;;;;;3.04;62.45;99825.00;4971535;28;97122;-88
2022/01/08 10:28:54;;;;;;;13.90;8.03;;;;;;;3.12;62.16;99843.94;4971512;28;98660;-88
2022/01/08 10:31:26;;;;;;;;;;;;;;;3.12;62.08;99842.19;4937450;28;100530;-89
2022/01/08 10:34:11;;;;;;;15.48;9.40;;;;;;;3.13;62.12;99841.31;4971761;28;96878;-88
2022/01/08 10:36:39;;;;;;;19.30;8.67;;;;;;;3.10;62.11;99823.19;4943656;28;97272;-88
2022/01/08 10:39:09;;;;;;;18.00;9.10;;;;;;;3.03;62.21;99812.91;4967463;28;97935;-88
2022/01/08 10:41:44;;;;;;;16.73;8.50;;;;;;;3.13;62.31;99830.94;4969200;28;99275;-87
2022/01/08 10:44:31;;;;;;;17.37;8.17;;;;;;;3.21;62.26;99830.84;4967628;28;97193;-85
2022/01/08 10:47:00;;;;;;;10.90;6.10;;;;;;;3.32;60.98;99829.00;4951964;28;96744;-89
2022/01/08 10:49:29;;;;;;;8.73;6.00;;;;;;;3.35;61.04;99835.88;4953333;28;97989;-87
2022/01/08 10:52:01;;;;;;;9.83;6.53;;;;;;;3.40;60.69;99829.75;4956645;28;101679;-88
2022/01/08 10:54:29;;;;;;;10.20;6.20;;;;;;;3.33;60.87;99825.50;4970067;28;97424;-88
2022/01/08 10:56:57;;;;;;;9.73;6.03;;;;;;;3.35;60.38;99815.97;4971135;28;96861;-88
2022/01/08 10:59:24;;;;;;;14.10;6.70;;;;;;;3.15;60.40;99779.91;4968497;28;101264;-87
2022/01/08 11:01:51;;;;;;;13.40;6.97;;;;;;;3.36;60.43;99812.50;4946641;28;100092;-88
2022/01/08 11:04:48;;;;;;;10.70;7.17;;;;;;;3.46;60.10;99827.94;4966966;28;97174;-86
2022/01/08 11:07:26;;;;;;;14.07;6.83;;;;;;;3.34;59.85;99797.81;4970939;28;96938;-88
2022/01/08 11:09:54;;;;;;;9.17;6.00;;;;;;;3.55;59.14;99810.53;4971445;28;101238;-87
2022/01/08 11:12:29;;;;;;;10.20;6.53;;;;;;;3.50;59.55;99804.53;4936214;28;101718;-88
2022/01/08 11:15:12;;;;;;;13.90;7.07;;;;;;;3.50;59.62;99799.34;4973071;28;97081;-88
2022/01/08 11:17:41;;;;;;;8.47;6.07;;;;;;;3.63;59.43;99805.22;4953355;28;97341;-88
2022/01/08 11:20:14;;;;;;;14.50;6.40;;;;;;;3.54;59.07;99784.59;4955979;28;100399;-89
2022/01/08 11:22:42;;;;;;;10.00;6.00;;;;;;;3.65;58.82;99802.59;4971216;28;98372;-88
2022/01/08 11:25:10;;;;;;;11.23;6.50;;;;;;;3.68;59.33;99798.22;4954924;28;97296;-88
2022/01/08 11:27:39;;;;;;;11.40;6.80;;;;;;;3.67;59.57;99799.13;4955541;28;97398;-87
2022/01/08 11:30:20;;;;;;;12.30;8.10;;;;;;;3.61;59.87;99789.69;4969302;28;100123;-85
2022/01/08 11:32:48;;;;;;;20.47;9.87;;;;;;;3.66;60.07;99794.78;4964704;28;98032;-87
2022/01/08 11:35:15;;;;;;;23.40;10.23;;;;;;;3.11;60.26;99704.72;4954495;28;96918;-86
2022/01/08 11:37:47;;;;;;;19.47;9.13;;;;;;;3.46;60.00;99753.56;4956329;28;97286;-88
2022/01/08 11:40:15;;;;;;;16.50;9.27;;;;;;;3.63;60.08;99787.91;4971834;28;98202;-85
2022/01/08 11:42:41;;;;;;;17.13;8.57;;;;;;;3.62;60.16;99780.16;4969822;28;97869;-88
2022/01/08 11:45:10;;;;;;;13.67;7.30;;;;;;;3.50;60.19;99759.56;4947901;28;97332;-88
2022/01/08 11:47:36;;;;;;;20.23;8.93;;;;;;;3.51;59.74;99762.13;4922408;28;97280;-88
2022/01/08 11:50:04;;;;;;;22.67;10.47;;;;;;;3.58;60.23;99776.75;4971642;28;97609;-89
2022/01/08 11:52:30;;;;;;;15.70;8.77;;;;;;;3.65;59.99;99768.88;4953465;28;100185;-89
2022/01/08 11:54:56;;;;;;;16.63;8.90;;;;;;;3.54;60.23;99769.00;4954889;28;97350;-88
2022/01/08 11:57:27;;;;;;;16.47;8.67;;;;;;;3.65;60.53;99764.53;4954874;28;98008;-88